sensor_id;sensor_type;location;lat;lon;timestamp;P1;durP1;ratioP1;P2;durP2;ratioP2
47373;SDS011;33123;50.118;10.272;2022-08-14T00:00:54;2.72;;;2.33;;
47373;SDS011;33123;50.118;10.272;2022-08-14T00:03:23;2.45;;;2.03;;
47373;SDS011;33123;50.118;10.272;2022-08-14T00:05:51;1.90;;;1.80;;
47373;SDS011;33123;50.118;10.272;2022-08-14T00:08:18;2.05;;;1.83;;
47373;SDS011;33123;50.118;10.272;2022-08-14T00:10:44;1.50;;;1.40;;
47373;SDS011;33123;50.118;10.272;2022-08-14T00:13:11;2.13;;;1.92;;
47373;SDS011;33123;50.118;10.272;2022-08-14T00:15:39;2.10;;;1.88;;
47373;SDS011;33123;50.118;10.272;2022-08-14T00:18:09;2.40;;;2.20;;
47373;SDS011;33123;50.118;10.272;2022-08-14T00:20:38;1.95;;;1.85;;
47373;SDS011;33123;50.118;10.272;2022-08-14T00:23:07;2.20;;;1.83;;
47373;SDS011;33123;50.118;10.272;2022-08-14T00:25:35;3.95;;;2.78;;
47373;SDS011;33123;50.118;10.272;2022-08-14T00:28:02;1.88;;;1.77;;
47373;SDS011;33123;50.118;10.272;2022-08-14T00:30:29;1.80;;;1.60;;
47373;SDS011;33123;50.118;10.272;2022-08-14T00:32:56;2.38;;;2.03;;
47373;SDS011;33123;50.118;10.272;2022-08-14T00:35:22;3.63;;;2.20;;
47373;SDS011;33123;50.118;10.272;2022-08-14T00:37:51;2.45;;;2.10;;
47373;SDS011;33123;50.118;10.272;2022-08-14T00:40:18;2.50;;;2.25;;
47373;SDS011;33123;50.118;10.272;2022-08-14T00:42:46;3.63;;;2.47;;
47373;SDS011;33123;50.118;10.272;2022-08-14T00:45:13;2.13;;;1.83;;
47373;SDS011;33123;50.118;10.272;2022-08-14T00:47:41;1.98;;;1.88;;
47373;SDS011;33123;50.118;10.272;2022-08-14T00:50:11;2.42;;;2.22;;
47373;SDS011;33123;50.118;10.272;2022-08-14T00:52:39;1.98;;;1.80;;
47373;SDS011;33123;50.118;10.272;2022-08-14T00:55:07;2.38;;;2.00;;
47373;SDS011;33123;50.118;10.272;2022-08-14T00:57:34;2.10;;;1.83;;
47373;SDS011;33123;50.118;10.272;2022-08-14T01:00:04;2.35;;;1.90;;
47373;SDS011;33123;50.118;10.272;2022-08-14T01:02:36;2.35;;;2.15;;
47373;SDS011;33123;50.118;10.272;2022-08-14T01:05:07;2.28;;;2.05;;
47373;SDS011;33123;50.118;10.272;2022-08-14T01:07:47;2.33;;;2.13;;
47373;SDS011;33123;50.118;10.272;2022-08-14T01:10:16;1.67;;;1.58;;
47373;SDS011;33123;50.118;10.272;2022-08-14T01:12:43;2.58;;;2.33;;
47373;SDS011;33123;50.118;10.272;2022-08-14T01:15:13;2.17;;;1.98;;
47373;SDS011;33123;50.118;10.272;2022-08-14T01:17:40;2.13;;;1.92;;
47373;SDS011;33123;50.118;10.272;2022-08-14T01:20:25;2.45;;;2.25;;
47373;SDS011;33123;50.118;10.272;2022-08-14T01:23:11;3.33;;;2.45;;
47373;SDS011;33123;50.118;10.272;2022-08-14T01:25:39;2.50;;;2.28;;
47373;SDS011;33123;50.118;10.272;2022-08-14T01:28:06;1.73;;;1.63;;
47373;SDS011;33123;50.118;10.272;2022-08-14T01:30:33;2.42;;;2.22;;
47373;SDS011;33123;50.118;10.272;2022-08-14T01:33:02;1.80;;;1.70;;
47373;SDS011;33123;50.118;10.272;2022-08-14T01:35:29;2.22;;;2.03;;
47373;SDS011;33123;50.118;10.272;2022-08-14T01:37:56;2.05;;;1.85;;
47373;SDS011;33123;50.118;10.272;2022-08-14T01:40:24;2.15;;;1.95;;
47373;SDS011;33123;50.118;10.272;2022-08-14T01:42:52;2.47;;;2.25;;
47373;SDS011;33123;50.118;10.272;2022-08-14T01:45:20;2.60;;;2.40;;
47373;SDS011;33123;50.118;10.272;2022-08-14T01:47:46;2.15;;;1.90;;
47373;SDS011;33123;50.118;10.272;2022-08-14T01:50:13;2.88;;;2.35;;
47373;SDS011;33123;50.118;10.272;2022-08-14T01:52:42;2.22;;;2.03;;
47373;SDS011;33123;50.118;10.272;2022-08-14T01:55:09;3.97;;;2.75;;
47373;SDS011;33123;50.118;10.272;2022-08-14T01:57:39;2.53;;;2.33;;
47373;SDS011;33123;50.118;10.272;2022-08-14T02:00:09;2.25;;;2.05;;
47373;SDS011;33123;50.118;10.272;2022-08-14T02:02:40;3.00;;;2.35;;
47373;SDS011;33123;50.118;10.272;2022-08-14T02:05:10;2.70;;;2.50;;
47373;SDS011;33123;50.118;10.272;2022-08-14T02:07:37;2.30;;;2.10;;
47373;SDS011;33123;50.118;10.272;2022-08-14T02:10:04;2.50;;;2.30;;
47373;SDS011;33123;50.118;10.272;2022-08-14T02:12:31;2.08;;;1.88;;
47373;SDS011;33123;50.118;10.272;2022-08-14T02:14:59;4.43;;;2.20;;
47373;SDS011;33123;50.118;10.272;2022-08-14T02:17:26;2.90;;;2.13;;
47373;SDS011;33123;50.118;10.272;2022-08-14T02:19:54;2.33;;;2.10;;
47373;SDS011;33123;50.118;10.272;2022-08-14T02:22:21;2.15;;;1.95;;
47373;SDS011;33123;50.118;10.272;2022-08-14T02:24:47;2.22;;;2.03;;
47373;SDS011;33123;50.118;10.272;2022-08-14T02:27:15;1.80;;;1.70;;
47373;SDS011;33123;50.118;10.272;2022-08-14T02:29:44;1.92;;;1.83;;
47373;SDS011;33123;50.118;10.272;2022-08-14T02:32:13;3.05;;;2.75;;
47373;SDS011;33123;50.118;10.272;2022-08-14T02:34:42;2.30;;;2.10;;
47373;SDS011;33123;50.118;10.272;2022-08-14T02:37:09;2.22;;;2.00;;
47373;SDS011;33123;50.118;10.272;2022-08-14T02:39:38;2.47;;;2.28;;
47373;SDS011;33123;50.118;10.272;2022-08-14T02:42:07;2.95;;;2.67;;
47373;SDS011;33123;50.118;10.272;2022-08-14T02:44:37;2.70;;;2.42;;
47373;SDS011;33123;50.118;10.272;2022-08-14T02:47:04;2.38;;;2.15;;
47373;SDS011;33123;50.118;10.272;2022-08-14T02:49:33;1.60;;;1.50;;
47373;SDS011;33123;50.118;10.272;2022-08-14T02:52:00;2.47;;;2.28;;
47373;SDS011;33123;50.118;10.272;2022-08-14T02:54:28;2.13;;;1.92;;
47373;SDS011;33123;50.118;10.272;2022-08-14T02:56:56;2.20;;;2.00;;
47373;SDS011;33123;50.118;10.272;2022-08-14T02:59:24;2.22;;;2.00;;
47373;SDS011;33123;50.118;10.272;2022-08-14T03:01:52;1.77;;;1.67;;
47373;SDS011;33123;50.118;10.272;2022-08-14T03:04:21;2.65;;;2.45;;
47373;SDS011;33123;50.118;10.272;2022-08-14T03:06:54;2.95;;;2.20;;
47373;SDS011;33123;50.118;10.272;2022-08-14T03:09:21;2.75;;;1.98;;
47373;SDS011;33123;50.118;10.272;2022-08-14T03:11:47;2.80;;;1.88;;
47373;SDS011;33123;50.118;10.272;2022-08-14T03:14:14;2.65;;;2.45;;
47373;SDS011;33123;50.118;10.272;2022-08-14T03:16:42;2.22;;;2.03;;
47373;SDS011;33123;50.118;10.272;2022-08-14T03:19:09;2.38;;;1.73;;
47373;SDS011;33123;50.118;10.272;2022-08-14T03:21:38;3.00;;;2.65;;
47373;SDS011;33123;50.118;10.272;2022-08-14T03:24:06;3.20;;;2.45;;
47373;SDS011;33123;50.118;10.272;2022-08-14T03:26:36;6.20;;;2.00;;
47373;SDS011;33123;50.118;10.272;2022-08-14T03:29:05;2.42;;;2.17;;
47373;SDS011;33123;50.118;10.272;2022-08-14T03:31:32;2.83;;;2.63;;
47373;SDS011;33123;50.118;10.272;2022-08-14T03:34:00;2.30;;;2.10;;
47373;SDS011;33123;50.118;10.272;2022-08-14T03:36:28;2.45;;;2.03;;
47373;SDS011;33123;50.118;10.272;2022-08-14T03:38:56;2.55;;;2.35;;
47373;SDS011;33123;50.118;10.272;2022-08-14T03:41:25;1.92;;;1.75;;
47373;SDS011;33123;50.118;10.272;2022-08-14T03:43:53;2.70;;;2.50;;
47373;SDS011;33123;50.118;10.272;2022-08-14T03:46:21;3.25;;;2.47;;
47373;SDS011;33123;50.118;10.272;2022-08-14T03:48:50;2.75;;;2.22;;
47373;SDS011;33123;50.118;10.272;2022-08-14T03:51:18;2.30;;;2.10;;
47373;SDS011;33123;50.118;10.272;2022-08-14T03:53:45;2.58;;;2.30;;
47373;SDS011;33123;50.118;10.272;2022-08-14T03:56:12;2.50;;;2.30;;
47373;SDS011;33123;50.118;10.272;2022-08-14T03:58:46;3.03;;;2.50;;
47373;SDS011;33123;50.118;10.272;2022-08-14T04:01:15;2.58;;;2.38;;
47373;SDS011;33123;50.118;10.272;2022-08-14T04:03:45;2.58;;;2.30;;
47373;SDS011;33123;50.118;10.272;2022-08-14T04:06:12;2.38;;;2.15;;
47373;SDS011;33123;50.118;10.272;2022-08-14T04:08:40;3.40;;;2.70;;
47373;SDS011;33123;50.118;10.272;2022-08-14T04:11:08;2.55;;;2.35;;
47373;SDS011;33123;50.118;10.272;2022-08-14T04:13:36;2.92;;;2.40;;
47373;SDS011;33123;50.118;10.272;2022-08-14T04:16:07;2.42;;;2.10;;
47373;SDS011;33123;50.118;10.272;2022-08-14T04:18:37;2.60;;;2.40;;
47373;SDS011;33123;50.118;10.272;2022-08-14T04:21:05;3.67;;;3.05;;
47373;SDS011;33123;50.118;10.272;2022-08-14T04:23:31;4.97;;;2.55;;
47373;SDS011;33123;50.118;10.272;2022-08-14T04:26:03;2.20;;;2.00;;
47373;SDS011;33123;50.118;10.272;2022-08-14T04:28:32;2.50;;;2.30;;
47373;SDS011;33123;50.118;10.272;2022-08-14T04:31:00;3.17;;;2.40;;
47373;SDS011;33123;50.118;10.272;2022-08-14T04:33:28;3.53;;;2.47;;
47373;SDS011;33123;50.118;10.272;2022-08-14T04:35:55;2.97;;;2.67;;
47373;SDS011;33123;50.118;10.272;2022-08-14T04:38:22;4.55;;;2.88;;
47373;SDS011;33123;50.118;10.272;2022-08-14T04:41:07;5.22;;;3.05;;
47373;SDS011;33123;50.118;10.272;2022-08-14T04:43:50;3.50;;;2.85;;
47373;SDS011;33123;50.118;10.272;2022-08-14T04:46:18;3.40;;;2.20;;
47373;SDS011;33123;50.118;10.272;2022-08-14T04:48:48;3.95;;;2.47;;
47373;SDS011;33123;50.118;10.272;2022-08-14T04:51:15;2.55;;;2.28;;
47373;SDS011;33123;50.118;10.272;2022-08-14T04:53:45;2.50;;;2.22;;
47373;SDS011;33123;50.118;10.272;2022-08-14T04:56:13;2.85;;;2.55;;
47373;SDS011;33123;50.118;10.272;2022-08-14T04:58:44;2.40;;;2.20;;
47373;SDS011;33123;50.118;10.272;2022-08-14T05:01:12;2.72;;;2.35;;
47373;SDS011;33123;50.118;10.272;2022-08-14T05:03:39;2.45;;;2.25;;
47373;SDS011;33123;50.118;10.272;2022-08-14T05:06:08;3.75;;;2.65;;
47373;SDS011;33123;50.118;10.272;2022-08-14T05:08:37;3.60;;;2.60;;
47373;SDS011;33123;50.118;10.272;2022-08-14T05:11:05;3.20;;;2.20;;
47373;SDS011;33123;50.118;10.272;2022-08-14T05:13:33;2.20;;;2.00;;
47373;SDS011;33123;50.118;10.272;2022-08-14T05:16:01;2.58;;;2.20;;
47373;SDS011;33123;50.118;10.272;2022-08-14T05:18:30;3.35;;;2.47;;
47373;SDS011;33123;50.118;10.272;2022-08-14T05:21:00;2.42;;;2.22;;
47373;SDS011;33123;50.118;10.272;2022-08-14T05:23:32;3.88;;;2.35;;
47373;SDS011;33123;50.118;10.272;2022-08-14T05:26:00;2.28;;;2.05;;
47373;SDS011;33123;50.118;10.272;2022-08-14T05:28:30;2.13;;;1.92;;
47373;SDS011;33123;50.118;10.272;2022-08-14T05:30:58;2.90;;;2.08;;
47373;SDS011;33123;50.118;10.272;2022-08-14T05:33:27;2.65;;;2.42;;
47373;SDS011;33123;50.118;10.272;2022-08-14T05:35:58;3.63;;;3.13;;
47373;SDS011;33123;50.118;10.272;2022-08-14T05:38:27;2.35;;;1.92;;
47373;SDS011;33123;50.118;10.272;2022-08-14T05:40:59;2.58;;;2.25;;
47373;SDS011;33123;50.118;10.272;2022-08-14T05:43:26;2.47;;;2.22;;
47373;SDS011;33123;50.118;10.272;2022-08-14T05:45:53;1.88;;;1.70;;
47373;SDS011;33123;50.118;10.272;2022-08-14T05:48:19;2.47;;;2.28;;
47373;SDS011;33123;50.118;10.272;2022-08-14T05:50:46;2.92;;;2.13;;
47373;SDS011;33123;50.118;10.272;2022-08-14T05:53:13;2.33;;;2.13;;
47373;SDS011;33123;50.118;10.272;2022-08-14T05:55:39;2.22;;;2.03;;
47373;SDS011;33123;50.118;10.272;2022-08-14T05:58:07;2.28;;;2.08;;
47373;SDS011;33123;50.118;10.272;2022-08-14T06:00:35;2.53;;;2.17;;
47373;SDS011;33123;50.118;10.272;2022-08-14T06:03:03;1.67;;;1.52;;
47373;SDS011;33123;50.118;10.272;2022-08-14T06:05:31;2.22;;;1.92;;
47373;SDS011;33123;50.118;10.272;2022-08-14T06:07:58;3.15;;;2.40;;
47373;SDS011;33123;50.118;10.272;2022-08-14T06:10:26;1.58;;;1.48;;
47373;SDS011;33123;50.118;10.272;2022-08-14T06:12:53;2.33;;;2.13;;
47373;SDS011;33123;50.118;10.272;2022-08-14T06:15:22;2.38;;;2.17;;
47373;SDS011;33123;50.118;10.272;2022-08-14T06:17:50;3.00;;;2.15;;
47373;SDS011;33123;50.118;10.272;2022-08-14T06:20:18;2.63;;;2.08;;
47373;SDS011;33123;50.118;10.272;2022-08-14T06:22:45;2.30;;;2.00;;
47373;SDS011;33123;50.118;10.272;2022-08-14T06:25:12;1.73;;;1.63;;
47373;SDS011;33123;50.118;10.272;2022-08-14T06:27:40;1.60;;;1.50;;
47373;SDS011;33123;50.118;10.272;2022-08-14T06:30:09;2.80;;;2.15;;
47373;SDS011;33123;50.118;10.272;2022-08-14T06:32:38;1.85;;;1.73;;
47373;SDS011;33123;50.118;10.272;2022-08-14T06:35:06;2.22;;;1.65;;
47373;SDS011;33123;50.118;10.272;2022-08-14T06:37:40;2.53;;;2.33;;
47373;SDS011;33123;50.118;10.272;2022-08-14T06:40:08;1.83;;;1.73;;
47373;SDS011;33123;50.118;10.272;2022-08-14T06:42:37;3.08;;;1.77;;
47373;SDS011;33123;50.118;10.272;2022-08-14T06:45:04;2.22;;;2.03;;
47373;SDS011;33123;50.118;10.272;2022-08-14T06:47:32;2.00;;;1.80;;
47373;SDS011;33123;50.118;10.272;2022-08-14T06:50:02;2.17;;;1.98;;
47373;SDS011;33123;50.118;10.272;2022-08-14T06:52:29;1.80;;;1.50;;
47373;SDS011;33123;50.118;10.272;2022-08-14T06:54:56;2.10;;;1.85;;
47373;SDS011;33123;50.118;10.272;2022-08-14T06:57:23;3.33;;;1.95;;
47373;SDS011;33123;50.118;10.272;2022-08-14T06:59:50;2.00;;;1.70;;
47373;SDS011;33123;50.118;10.272;2022-08-14T07:02:17;2.15;;;1.75;;
47373;SDS011;33123;50.118;10.272;2022-08-14T07:05:03;2.03;;;1.83;;
47373;SDS011;33123;50.118;10.272;2022-08-14T07:07:47;2.08;;;1.77;;
47373;SDS011;33123;50.118;10.272;2022-08-14T07:10:14;2.20;;;1.75;;
47373;SDS011;33123;50.118;10.272;2022-08-14T07:12:41;1.45;;;1.30;;
47373;SDS011;33123;50.118;10.272;2022-08-14T07:15:08;1.60;;;1.45;;
47373;SDS011;33123;50.118;10.272;2022-08-14T07:17:42;2.25;;;2.00;;
47373;SDS011;33123;50.118;10.272;2022-08-14T07:20:11;1.40;;;1.30;;
47373;SDS011;33123;50.118;10.272;2022-08-14T07:22:38;2.15;;;1.65;;
47373;SDS011;33123;50.118;10.272;2022-08-14T07:25:05;1.40;;;1.30;;
47373;SDS011;33123;50.118;10.272;2022-08-14T07:27:32;2.65;;;2.20;;
47373;SDS011;33123;50.118;10.272;2022-08-14T07:30:00;2.15;;;1.95;;
47373;SDS011;33123;50.118;10.272;2022-08-14T07:32:28;1.58;;;1.40;;
47373;SDS011;33123;50.118;10.272;2022-08-14T07:34:54;1.55;;;1.38;;
47373;SDS011;33123;50.118;10.272;2022-08-14T07:37:22;2.80;;;2.10;;
47373;SDS011;33123;50.118;10.272;2022-08-14T07:39:49;1.30;;;1.20;;
47373;SDS011;33123;50.118;10.272;2022-08-14T07:42:16;1.77;;;1.67;;
47373;SDS011;33123;50.118;10.272;2022-08-14T07:44:43;1.40;;;1.30;;
47373;SDS011;33123;50.118;10.272;2022-08-14T07:47:10;1.42;;;1.33;;
47373;SDS011;33123;50.118;10.272;2022-08-14T07:49:36;1.67;;;1.55;;
47373;SDS011;33123;50.118;10.272;2022-08-14T07:52:03;1.30;;;1.20;;
47373;SDS011;33123;50.118;10.272;2022-08-14T07:54:32;1.20;;;1.10;;
47373;SDS011;33123;50.118;10.272;2022-08-14T07:56:58;1.20;;;1.20;;
47373;SDS011;33123;50.118;10.272;2022-08-14T07:59:26;1.63;;;1.48;;
47373;SDS011;33123;50.118;10.272;2022-08-14T08:01:53;1.33;;;1.23;;
47373;SDS011;33123;50.118;10.272;2022-08-14T08:04:21;1.10;;;1.10;;
47373;SDS011;33123;50.118;10.272;2022-08-14T08:06:51;1.60;;;1.33;;
47373;SDS011;33123;50.118;10.272;2022-08-14T08:09:18;1.30;;;1.20;;
47373;SDS011;33123;50.118;10.272;2022-08-14T08:11:50;1.52;;;1.42;;
47373;SDS011;33123;50.118;10.272;2022-08-14T08:14:19;1.67;;;1.58;;
47373;SDS011;33123;50.118;10.272;2022-08-14T08:16:46;1.63;;;1.52;;
47373;SDS011;33123;50.118;10.272;2022-08-14T08:19:13;1.50;;;1.27;;
47373;SDS011;33123;50.118;10.272;2022-08-14T08:21:43;1.42;;;1.30;;
47373;SDS011;33123;50.118;10.272;2022-08-14T08:24:10;1.65;;;1.27;;
47373;SDS011;33123;50.118;10.272;2022-08-14T08:26:37;1.30;;;1.20;;
47373;SDS011;33123;50.118;10.272;2022-08-14T08:29:05;2.42;;;1.55;;
47373;SDS011;33123;50.118;10.272;2022-08-14T08:31:33;2.20;;;1.95;;
47373;SDS011;33123;50.118;10.272;2022-08-14T08:34:11;1.20;;;1.15;;
47373;SDS011;33123;50.118;10.272;2022-08-14T08:36:39;1.38;;;1.27;;
47373;SDS011;33123;50.118;10.272;2022-08-14T08:39:06;1.77;;;1.67;;
47373;SDS011;33123;50.118;10.272;2022-08-14T08:41:40;1.38;;;1.27;;
47373;SDS011;33123;50.118;10.272;2022-08-14T08:44:10;1.63;;;1.50;;
47373;SDS011;33123;50.118;10.272;2022-08-14T08:46:38;1.05;;;1.05;;
47373;SDS011;33123;50.118;10.272;2022-08-14T08:49:06;1.17;;;1.08;;
47373;SDS011;33123;50.118;10.272;2022-08-14T08:51:35;1.60;;;1.50;;
47373;SDS011;33123;50.118;10.272;2022-08-14T08:54:03;0.95;;;0.90;;
47373;SDS011;33123;50.118;10.272;2022-08-14T08:56:35;0.95;;;0.95;;
47373;SDS011;33123;50.118;10.272;2022-08-14T08:59:18;1.63;;;1.42;;
47373;SDS011;33123;50.118;10.272;2022-08-14T09:01:46;1.25;;;1.05;;
47373;SDS011;33123;50.118;10.272;2022-08-14T09:04:17;1.17;;;1.07;;
47373;SDS011;33123;50.118;10.272;2022-08-14T09:06:44;1.00;;;1.00;;
47373;SDS011;33123;50.118;10.272;2022-08-14T09:09:20;1.13;;;1.02;;
47373;SDS011;33123;50.118;10.272;2022-08-14T09:11:49;1.50;;;1.40;;
47373;SDS011;33123;50.118;10.272;2022-08-14T09:14:19;1.20;;;1.10;;
47373;SDS011;33123;50.118;10.272;2022-08-14T09:16:46;1.27;;;1.17;;
47373;SDS011;33123;50.118;10.272;2022-08-14T09:19:14;1.23;;;1.15;;
47373;SDS011;33123;50.118;10.272;2022-08-14T09:21:41;1.30;;;1.20;;
47373;SDS011;33123;50.118;10.272;2022-08-14T09:24:08;1.23;;;1.13;;
47373;SDS011;33123;50.118;10.272;2022-08-14T09:26:36;1.10;;;1.10;;
47373;SDS011;33123;50.118;10.272;2022-08-14T09:29:03;1.15;;;1.00;;
47373;SDS011;33123;50.118;10.272;2022-08-14T09:31:33;1.20;;;1.10;;
47373;SDS011;33123;50.118;10.272;2022-08-14T09:34:05;2.15;;;1.58;;
47373;SDS011;33123;50.118;10.272;2022-08-14T09:36:42;1.40;;;1.30;;
47373;SDS011;33123;50.118;10.272;2022-08-14T09:39:46;4.22;;;1.30;;
47373;SDS011;33123;50.118;10.272;2022-08-14T09:42:25;1.17;;;1.08;;
47373;SDS011;33123;50.118;10.272;2022-08-14T09:45:12;1.20;;;1.05;;
47373;SDS011;33123;50.118;10.272;2022-08-14T09:47:46;1.40;;;1.23;;
47373;SDS011;33123;50.118;10.272;2022-08-14T09:50:22;1.25;;;1.13;;
47373;SDS011;33123;50.118;10.272;2022-08-14T09:52:52;3.10;;;1.77;;
47373;SDS011;33123;50.118;10.272;2022-08-14T09:55:21;1.23;;;1.05;;
47373;SDS011;33123;50.118;10.272;2022-08-14T09:57:50;1.90;;;1.42;;
47373;SDS011;33123;50.118;10.272;2022-08-14T10:00:17;1.08;;;0.98;;
47373;SDS011;33123;50.118;10.272;2022-08-14T10:02:52;1.45;;;1.35;;
47373;SDS011;33123;50.118;10.272;2022-08-14T10:05:26;1.58;;;1.48;;
47373;SDS011;33123;50.118;10.272;2022-08-14T10:07:54;1.33;;;1.23;;
47373;SDS011;33123;50.118;10.272;2022-08-14T10:10:28;1.15;;;1.10;;
47373;SDS011;33123;50.118;10.272;2022-08-14T10:12:56;1.48;;;1.20;;
47373;SDS011;33123;50.118;10.272;2022-08-14T10:15:25;1.13;;;1.08;;
47373;SDS011;33123;50.118;10.272;2022-08-14T10:20:40;1.15;;;1.10;;
47373;SDS011;33123;50.118;10.272;2022-08-14T10:23:11;0.93;;;0.93;;
47373;SDS011;33123;50.118;10.272;2022-08-14T10:25:41;0.90;;;0.90;;
47373;SDS011;33123;50.118;10.272;2022-08-14T10:28:10;1.35;;;1.27;;
47373;SDS011;33123;50.118;10.272;2022-08-14T10:30:39;1.15;;;1.08;;
47373;SDS011;33123;50.118;10.272;2022-08-14T10:33:08;1.15;;;1.10;;
47373;SDS011;33123;50.118;10.272;2022-08-14T10:35:40;1.52;;;1.13;;
47373;SDS011;33123;50.118;10.272;2022-08-14T10:38:07;1.35;;;1.25;;
47373;SDS011;33123;50.118;10.272;2022-08-14T10:40:34;1.77;;;1.48;;
47373;SDS011;33123;50.118;10.272;2022-08-14T10:43:02;1.10;;;1.10;;
47373;SDS011;33123;50.118;10.272;2022-08-14T10:45:30;1.10;;;1.10;;
47373;SDS011;33123;50.118;10.272;2022-08-14T10:47:58;1.38;;;1.10;;
47373;SDS011;33123;50.118;10.272;2022-08-14T10:50:30;1.30;;;1.20;;
47373;SDS011;33123;50.118;10.272;2022-08-14T10:53:00;1.20;;;1.10;;
47373;SDS011;33123;50.118;10.272;2022-08-14T10:55:30;1.30;;;1.20;;
47373;SDS011;33123;50.118;10.272;2022-08-14T10:58:03;1.42;;;1.33;;
47373;SDS011;33123;50.118;10.272;2022-08-14T11:00:34;1.35;;;1.25;;
47373;SDS011;33123;50.118;10.272;2022-08-14T11:03:03;1.38;;;1.27;;
47373;SDS011;33123;50.118;10.272;2022-08-14T11:05:38;1.27;;;1.17;;
47373;SDS011;33123;50.118;10.272;2022-08-14T11:08:07;1.60;;;1.50;;
47373;SDS011;33123;50.118;10.272;2022-08-14T11:10:40;1.35;;;1.25;;
47373;SDS011;33123;50.118;10.272;2022-08-14T11:13:09;1.52;;;1.42;;
47373;SDS011;33123;50.118;10.272;2022-08-14T11:15:41;2.30;;;1.73;;
47373;SDS011;33123;50.118;10.272;2022-08-14T11:18:10;1.30;;;1.20;;
47373;SDS011;33123;50.118;10.272;2022-08-14T11:20:37;2.20;;;1.67;;
47373;SDS011;33123;50.118;10.272;2022-08-14T11:23:10;2.15;;;1.95;;
47373;SDS011;33123;50.118;10.272;2022-08-14T11:25:38;1.65;;;1.38;;
47373;SDS011;33123;50.118;10.272;2022-08-14T11:30:37;1.52;;;1.42;;
47373;SDS011;33123;50.118;10.272;2022-08-14T11:33:06;4.88;;;1.55;;
47373;SDS011;33123;50.118;10.272;2022-08-14T11:35:33;0.90;;;0.90;;
47373;SDS011;33123;50.118;10.272;2022-08-14T11:38:02;1.30;;;1.20;;
47373;SDS011;33123;50.118;10.272;2022-08-14T11:40:32;1.83;;;1.58;;
47373;SDS011;33123;50.118;10.272;2022-08-14T11:43:01;1.70;;;1.50;;
47373;SDS011;33123;50.118;10.272;2022-08-14T11:45:29;2.67;;;1.83;;
47373;SDS011;33123;50.118;10.272;2022-08-14T11:47:58;1.00;;;1.00;;
47373;SDS011;33123;50.118;10.272;2022-08-14T11:50:27;1.30;;;1.20;;
47373;SDS011;33123;50.118;10.272;2022-08-14T11:52:55;1.35;;;1.25;;
47373;SDS011;33123;50.118;10.272;2022-08-14T11:55:23;1.20;;;1.10;;
47373;SDS011;33123;50.118;10.272;2022-08-14T11:57:59;1.15;;;1.05;;
47373;SDS011;33123;50.118;10.272;2022-08-14T12:00:27;1.77;;;1.67;;
47373;SDS011;33123;50.118;10.272;2022-08-14T12:02:54;1.05;;;1.05;;
47373;SDS011;33123;50.118;10.272;2022-08-14T12:05:29;2.75;;;1.33;;
47373;SDS011;33123;50.118;10.272;2022-08-14T12:07:57;1.50;;;1.40;;
47373;SDS011;33123;50.118;10.272;2022-08-14T12:10:24;1.40;;;1.30;;
47373;SDS011;33123;50.118;10.272;2022-08-14T12:12:51;1.30;;;1.20;;
47373;SDS011;33123;50.118;10.272;2022-08-14T12:15:31;1.02;;;1.00;;
47373;SDS011;33123;50.118;10.272;2022-08-14T12:18:00;1.20;;;1.10;;
47373;SDS011;33123;50.118;10.272;2022-08-14T12:20:27;1.20;;;1.10;;
47373;SDS011;33123;50.118;10.272;2022-08-14T12:22:55;1.27;;;1.05;;
47373;SDS011;33123;50.118;10.272;2022-08-14T12:25:22;1.40;;;1.30;;
47373;SDS011;33123;50.118;10.272;2022-08-14T12:27:51;0.93;;;0.93;;
47373;SDS011;33123;50.118;10.272;2022-08-14T12:30:27;1.52;;;1.42;;
47373;SDS011;33123;50.118;10.272;2022-08-14T12:32:56;0.93;;;0.93;;
47373;SDS011;33123;50.118;10.272;2022-08-14T12:35:33;1.15;;;1.05;;
47373;SDS011;33123;50.118;10.272;2022-08-14T12:38:01;1.30;;;1.20;;
47373;SDS011;33123;50.118;10.272;2022-08-14T12:40:28;1.58;;;1.48;;
47373;SDS011;33123;50.118;10.272;2022-08-14T12:42:58;2.10;;;1.35;;
47373;SDS011;33123;50.118;10.272;2022-08-14T12:45:28;1.20;;;1.10;;
47373;SDS011;33123;50.118;10.272;2022-08-14T12:47:59;1.20;;;1.10;;
47373;SDS011;33123;50.118;10.272;2022-08-14T12:50:34;1.27;;;1.02;;
47373;SDS011;33123;50.118;10.272;2022-08-14T12:53:04;4.55;;;1.42;;
47373;SDS011;33123;50.118;10.272;2022-08-14T12:55:33;1.30;;;1.20;;
47373;SDS011;33123;50.118;10.272;2022-08-14T12:58:00;1.40;;;1.30;;
47373;SDS011;33123;50.118;10.272;2022-08-14T13:00:29;1.00;;;0.98;;
47373;SDS011;33123;50.118;10.272;2022-08-14T13:02:59;1.30;;;1.20;;
47373;SDS011;33123;50.118;10.272;2022-08-14T13:05:28;1.48;;;1.38;;
47373;SDS011;33123;50.118;10.272;2022-08-14T13:07:57;1.23;;;1.13;;
47373;SDS011;33123;50.118;10.272;2022-08-14T13:10:24;1.67;;;1.55;;
47373;SDS011;33123;50.118;10.272;2022-08-14T13:12:53;1.60;;;1.25;;
47373;SDS011;33123;50.118;10.272;2022-08-14T13:15:21;1.33;;;1.23;;
47373;SDS011;33123;50.118;10.272;2022-08-14T13:17:49;1.08;;;1.08;;
47373;SDS011;33123;50.118;10.272;2022-08-14T13:20:19;0.80;;;0.80;;
47373;SDS011;33123;50.118;10.272;2022-08-14T13:22:47;1.02;;;1.02;;
47373;SDS011;33123;50.118;10.272;2022-08-14T13:25:15;1.35;;;1.25;;
47373;SDS011;33123;50.118;10.272;2022-08-14T13:27:43;1.25;;;1.15;;
47373;SDS011;33123;50.118;10.272;2022-08-14T13:30:11;1.38;;;1.27;;
47373;SDS011;33123;50.118;10.272;2022-08-14T13:32:39;1.70;;;1.52;;
47373;SDS011;33123;50.118;10.272;2022-08-14T13:35:09;1.33;;;1.23;;
47373;SDS011;33123;50.118;10.272;2022-08-14T13:37:38;1.38;;;1.27;;
47373;SDS011;33123;50.118;10.272;2022-08-14T13:40:07;1.33;;;1.23;;
47373;SDS011;33123;50.118;10.272;2022-08-14T13:42:35;1.77;;;1.40;;
47373;SDS011;33123;50.118;10.272;2022-08-14T13:45:02;1.65;;;1.55;;
47373;SDS011;33123;50.118;10.272;2022-08-14T13:47:31;1.45;;;1.35;;
47373;SDS011;33123;50.118;10.272;2022-08-14T13:49:58;1.77;;;1.50;;
47373;SDS011;33123;50.118;10.272;2022-08-14T13:52:26;1.63;;;1.52;;
47373;SDS011;33123;50.118;10.272;2022-08-14T13:55:00;1.17;;;1.17;;
47373;SDS011;33123;50.118;10.272;2022-08-14T13:57:30;1.88;;;1.67;;
47373;SDS011;33123;50.118;10.272;2022-08-14T13:59:58;3.45;;;1.27;;
47373;SDS011;33123;50.118;10.272;2022-08-14T14:02:29;2.60;;;1.93;;
47373;SDS011;33123;50.118;10.272;2022-08-14T14:04:56;1.13;;;1.08;;
47373;SDS011;33123;50.118;10.272;2022-08-14T14:07:26;1.88;;;1.65;;
47373;SDS011;33123;50.118;10.272;2022-08-14T14:09:54;4.75;;;1.60;;
47373;SDS011;33123;50.118;10.272;2022-08-14T14:12:24;1.42;;;1.33;;
47373;SDS011;33123;50.118;10.272;2022-08-14T14:14:51;1.50;;;1.40;;
47373;SDS011;33123;50.118;10.272;2022-08-14T14:17:18;1.92;;;1.60;;
47373;SDS011;33123;50.118;10.272;2022-08-14T14:19:48;1.42;;;1.25;;
47373;SDS011;33123;50.118;10.272;2022-08-14T14:22:16;2.33;;;1.95;;
47373;SDS011;33123;50.118;10.272;2022-08-14T14:24:43;1.50;;;1.40;;
47373;SDS011;33123;50.118;10.272;2022-08-14T14:27:11;1.13;;;1.02;;
47373;SDS011;33123;50.118;10.272;2022-08-14T14:29:45;2.10;;;1.83;;
47373;SDS011;33123;50.118;10.272;2022-08-14T14:32:16;1.50;;;1.40;;
47373;SDS011;33123;50.118;10.272;2022-08-14T14:34:43;1.40;;;1.30;;
47373;SDS011;33123;50.118;10.272;2022-08-14T14:37:10;1.48;;;1.35;;
47373;SDS011;33123;50.118;10.272;2022-08-14T14:39:39;1.48;;;1.38;;
47373;SDS011;33123;50.118;10.272;2022-08-14T14:42:07;0.88;;;0.88;;
47373;SDS011;33123;50.118;10.272;2022-08-14T14:44:35;1.48;;;1.33;;
47373;SDS011;33123;50.118;10.272;2022-08-14T14:47:08;2.05;;;1.35;;
47373;SDS011;33123;50.118;10.272;2022-08-14T14:49:36;1.70;;;1.55;;